createdAt,value
2017-03-10T00:00:52.340Z,1020.93
2017-03-10T00:02:02.605Z,1020.95
2017-03-10T00:03:12.500Z,1020.98
2017-03-10T00:04:21.580Z,1021
2017-03-10T00:05:31.840Z,1021.06
2017-03-10T00:06:42.118Z,1021.05
2017-03-10T00:07:52.429Z,1021.11
2017-03-10T00:09:02.311Z,1021.15
2017-03-10T00:10:12.065Z,1021.16
2017-03-10T00:11:22.749Z,1021.2
2017-03-10T00:12:32.640Z,1021.23
2017-03-10T00:13:42.946Z,1021.24
2017-03-10T00:14:53.205Z,1021.25
2017-03-10T00:16:04.042Z,1021.3
2017-03-10T00:17:14.714Z,1021.36
2017-03-10T00:18:24.608Z,1021.33
2017-03-10T00:19:35.290Z,1021.38
2017-03-10T00:20:45.944Z,1021.45
2017-03-10T00:21:56.577Z,1021.46
2017-03-10T00:23:06.054Z,1021.46
2017-03-10T00:24:16.318Z,1021.5
2017-03-10T00:25:26.601Z,1021.49
2017-03-10T00:26:36.904Z,1021.52
2017-03-10T00:27:47.939Z,1021.51
2017-03-10T00:28:58.602Z,1021.49
2017-03-10T00:30:08.485Z,1021.48
2017-03-10T00:31:18.754Z,1021.51
2017-03-10T00:32:29.409Z,1021.51
2017-03-10T00:33:39.976Z,1021.51
2017-03-10T00:34:50.255Z,1021.46
2017-03-10T00:36:00.535Z,1021.54
2017-03-10T00:37:10.431Z,1021.5
2017-03-10T00:38:20.727Z,1021.51
2017-03-10T00:39:31.553Z,1021.54
2017-03-10T00:40:41.445Z,1021.54
2017-03-10T00:41:52.010Z,1021.59
2017-03-10T00:43:02.283Z,1021.52
2017-03-10T00:44:12.959Z,1021.56
2017-03-10T00:45:23.129Z,1021.5
2017-03-10T00:46:33.014Z,1021.57
2017-03-10T00:47:42.944Z,1021.57
2017-03-10T00:48:53.211Z,1021.62
2017-03-10T00:50:03.092Z,1021.61
2017-03-10T00:51:13.731Z,1021.7
2017-03-10T00:52:23.607Z,1021.73
2017-03-10T00:53:33.877Z,1021.67
2017-03-10T00:54:44.167Z,1021.71
2017-03-10T00:55:54.823Z,1021.67
2017-03-10T00:57:05.628Z,1021.64
2017-03-10T00:58:16.309Z,1021.6
2017-03-10T00:59:26.969Z,1021.6
2017-03-10T01:00:37.247Z,1021.65
2017-03-10T01:01:47.913Z,1021.67
2017-03-10T01:02:58.429Z,1021.64
2017-03-10T01:04:09.089Z,1021.66
2017-03-10T01:05:19.357Z,1021.68
2017-03-10T01:06:29.645Z,1021.69
2017-03-10T01:07:40.307Z,1021.71
2017-03-10T01:08:51.109Z,1021.72
2017-03-10T01:10:01.030Z,1021.74
2017-03-10T01:11:11.305Z,1021.77
2017-03-10T01:12:21.974Z,1021.78
2017-03-10T01:13:32.876Z,1021.83
2017-03-10T01:14:43.334Z,1021.86
2017-03-10T01:15:53.207Z,1021.89
2017-03-10T01:17:03.103Z,1021.91
2017-03-10T01:18:13.757Z,1021.84
2017-03-10T01:19:24.427Z,1021.9
2017-03-10T01:20:34.850Z,1021.86
2017-03-10T01:21:45.137Z,1021.86
2017-03-10T01:22:55.798Z,1021.92
2017-03-10T01:24:06.471Z,1021.91
2017-03-10T01:25:16.776Z,1021.92
2017-03-10T01:26:26.822Z,1021.91
2017-03-10T01:27:37.125Z,1021.92
2017-03-10T01:28:47.765Z,1021.91
2017-03-10T01:29:58.052Z,1021.92
2017-03-10T01:31:07.972Z,1021.9
2017-03-10T01:32:19.001Z,1021.95
2017-03-10T01:33:29.265Z,1021.9
2017-03-10T01:34:39.566Z,1021.9
2017-03-10T01:35:50.127Z,1021.87
2017-03-10T01:37:00.033Z,1021.89
2017-03-10T01:38:10.169Z,1021.86
2017-03-10T01:39:20.881Z,1021.82
2017-03-10T01:40:31.161Z,1021.86
2017-03-10T01:41:41.844Z,1021.87
2017-03-10T01:42:51.728Z,1021.85
2017-03-10T01:44:02.672Z,1021.84
2017-03-10T01:45:13.351Z,1021.87
2017-03-10T01:46:23.637Z,1021.94
2017-03-10T01:47:33.898Z,1021.91
2017-03-10T01:48:43.772Z,1021.88
2017-03-10T01:49:54.409Z,1021.92
2017-03-10T01:51:05.094Z,1021.93
2017-03-10T01:52:15.762Z,1021.88
2017-03-10T01:53:26.039Z,1021.93
2017-03-10T01:54:36.309Z,1021.91
2017-03-10T01:55:46.728Z,1021.96
2017-03-10T01:56:56.984Z,1022
2017-03-10T01:58:07.272Z,1021.96
2017-03-10T01:59:17.946Z,1021.93
2017-03-10T02:00:28.631Z,1021.97
2017-03-10T02:01:39.054Z,1021.99
2017-03-10T02:02:48.951Z,1021.96
2017-03-10T02:03:59.205Z,1021.96
2017-03-10T02:05:09.487Z,1021.98
2017-03-10T02:06:19.391Z,1022.03
2017-03-10T02:07:29.858Z,1022
2017-03-10T02:08:39.760Z,1022
2017-03-10T02:09:50.061Z,1022.04
2017-03-10T02:11:00.321Z,1022.01
2017-03-10T02:12:10.640Z,1022.04
2017-03-10T02:13:21.071Z,1022.06
2017-03-10T02:14:31.733Z,1022.09
2017-03-10T02:15:42.408Z,1022.11
2017-03-10T02:16:53.066Z,1022.09
2017-03-10T02:18:02.964Z,1022.12
2017-03-10T02:19:13.016Z,1022.11
2017-03-10T02:20:23.281Z,1022.06
2017-03-10T02:21:33.154Z,1022.07
2017-03-10T02:22:43.436Z,1022.1
2017-03-10T02:23:53.720Z,1022.07
2017-03-10T02:25:04.245Z,1022.12
2017-03-10T02:26:14.165Z,1022.15
2017-03-10T02:27:24.035Z,1022.13
2017-03-10T02:28:34.308Z,1022.16
2017-03-10T02:29:44.573Z,1022.15
2017-03-10T02:30:55.401Z,1022.17
2017-03-10T02:32:06.060Z,1022.16
2017-03-10T02:33:16.340Z,1022.16
2017-03-10T02:34:25.844Z,1022.22
2017-03-10T02:35:36.520Z,1022.22
2017-03-10T02:36:46.583Z,1022.2
2017-03-10T02:37:57.276Z,1022.21
2017-03-10T02:39:07.539Z,1022.15
2017-03-10T02:40:17.837Z,1022.17
2017-03-10T02:41:28.117Z,1022.18
2017-03-10T02:42:38.716Z,1022.14
2017-03-10T02:43:48.985Z,1022.19
2017-03-10T02:44:59.645Z,1022.2
2017-03-10T02:46:10.317Z,1022.22
2017-03-10T02:47:20.607Z,1022.15
2017-03-10T02:48:31.054Z,1022.19
2017-03-10T02:49:41.322Z,1022.19
2017-03-10T02:50:51.597Z,1022.18
2017-03-10T02:52:02.256Z,1022.14
2017-03-10T02:53:12.518Z,1022.18
2017-03-10T02:54:22.708Z,1022.14
2017-03-10T02:55:33.358Z,1022.12
2017-03-10T02:56:44.015Z,1022.14
2017-03-10T02:57:54.289Z,1022.13
2017-03-10T02:59:04.183Z,1022.18
2017-03-10T03:00:15.142Z,1022.16
2017-03-10T03:01:24.632Z,1022.19
2017-03-10T03:02:34.885Z,1022.16
2017-03-10T03:03:45.174Z,1022.17
2017-03-10T03:04:55.452Z,1022.2
2017-03-10T03:06:05.902Z,1022.17
2017-03-10T03:07:16.577Z,1022.19
2017-03-10T03:08:27.247Z,1022.17
2017-03-10T03:09:37.521Z,1022.17
2017-03-10T03:10:48.183Z,1022.17
2017-03-10T03:11:59.000Z,1022.19
2017-03-10T03:13:09.645Z,1022.2
2017-03-10T03:14:20.301Z,1022.18
2017-03-10T03:15:30.247Z,1022.22
2017-03-10T03:16:39.737Z,1022.22
2017-03-10T03:17:50.118Z,1022.23
2017-03-10T03:19:01.101Z,1022.25
2017-03-10T03:20:11.369Z,1022.28
2017-03-10T03:21:21.635Z,1022.28
2017-03-10T03:22:31.505Z,1022.32
2017-03-10T03:23:41.567Z,1022.31
2017-03-10T03:24:52.236Z,1022.34
2017-03-10T03:26:01.757Z,1022.3
2017-03-10T03:27:12.016Z,1022.34
2017-03-10T03:28:22.720Z,1022.35
2017-03-10T03:29:33.154Z,1022.33
2017-03-10T03:30:43.418Z,1022.39
2017-03-10T03:31:53.691Z,1022.4
2017-03-10T03:33:03.187Z,1022.42
2017-03-10T03:34:13.465Z,1022.43
2017-03-10T03:35:23.890Z,1022.41
2017-03-10T03:36:34.561Z,1022.4
2017-03-10T03:37:44.819Z,1022.39
2017-03-10T03:38:55.487Z,1022.39
2017-03-10T03:40:05.800Z,1022.48
2017-03-10T03:41:15.960Z,1022.44
2017-03-10T03:42:25.849Z,1022.5
2017-03-10T03:43:36.510Z,1022.52
2017-03-10T03:44:46.817Z,1022.5
2017-03-10T03:45:57.482Z,1022.53
2017-03-10T03:47:07.717Z,1022.55
2017-03-10T03:48:17.982Z,1022.55
2017-03-10T03:49:28.666Z,1022.52
2017-03-10T03:50:38.915Z,1022.48
2017-03-10T03:51:49.178Z,1022.46
2017-03-10T03:53:00.103Z,1022.47
2017-03-10T03:54:10.758Z,1022.47
2017-03-10T03:55:21.053Z,1022.52
2017-03-10T03:56:30.947Z,1022.51
2017-03-10T03:57:41.234Z,1022.54
2017-03-10T03:58:51.861Z,1022.55
2017-03-10T04:00:02.146Z,1022.57
2017-03-10T04:01:12.029Z,1022.51
2017-03-10T04:02:22.676Z,1022.51
2017-03-10T04:03:32.954Z,1022.52
2017-03-10T04:04:43.470Z,1022.54
2017-03-10T04:05:54.137Z,1022.54
2017-03-10T04:07:04.803Z,1022.55
2017-03-10T04:08:14.296Z,1022.6
2017-03-10T04:09:24.964Z,1022.58
2017-03-10T04:10:35.363Z,1022.57
2017-03-10T04:11:45.628Z,1022.54
2017-03-10T04:12:55.527Z,1022.59
2017-03-10T04:14:05.808Z,1022.59
2017-03-10T04:15:15.686Z,1022.58
2017-03-10T04:16:26.454Z,1022.54
2017-03-10T04:17:36.719Z,1022.55
2017-03-10T04:18:47.388Z,1022.54
2017-03-10T04:19:57.307Z,1022.58
2017-03-10T04:21:08.120Z,1022.59
2017-03-10T04:22:18.111Z,1022.61
2017-03-10T04:23:28.380Z,1022.64
2017-03-10T04:24:38.654Z,1022.67
2017-03-10T04:25:49.321Z,1022.69
2017-03-10T04:26:59.582Z,1022.71
2017-03-10T04:28:10.551Z,1022.69
2017-03-10T04:29:21.206Z,1022.72
2017-03-10T04:30:31.514Z,1022.67
2017-03-10T04:31:41.011Z,1022.69
2017-03-10T04:32:51.276Z,1022.72
2017-03-10T04:34:02.064Z,1022.72
2017-03-10T04:35:12.726Z,1022.71
2017-03-10T04:36:22.612Z,1022.72
2017-03-10T04:37:32.906Z,1022.72
2017-03-10T04:38:43.180Z,1022.71
2017-03-10T04:39:53.365Z,1022.73
2017-03-10T04:41:03.684Z,1022.73
2017-03-10T04:42:13.947Z,1022.74
2017-03-10T04:43:24.637Z,1022.73
2017-03-10T04:44:34.893Z,1022.71
2017-03-10T04:45:45.093Z,1022.71
2017-03-10T04:46:55.756Z,1022.72
2017-03-10T04:48:05.263Z,1022.72
2017-03-10T04:49:15.938Z,1022.69
2017-03-10T04:50:26.608Z,1022.7
2017-03-10T04:51:37.631Z,1022.74
2017-03-10T04:52:47.891Z,1022.73
2017-03-10T04:53:58.550Z,1022.71
2017-03-10T04:55:09.201Z,1022.68
2017-03-10T04:56:19.488Z,1022.7
2017-03-10T04:57:29.665Z,1022.71
2017-03-10T04:58:40.332Z,1022.76
2017-03-10T04:59:50.615Z,1022.77
2017-03-10T05:01:01.292Z,1022.81
2017-03-10T05:02:11.969Z,1022.87
2017-03-10T05:03:22.971Z,1022.85
2017-03-10T05:04:33.246Z,1022.83
2017-03-10T05:05:43.154Z,1022.8
2017-03-10T05:06:53.815Z,1022.8
2017-03-10T05:08:03.734Z,1022.79
2017-03-10T05:09:14.370Z,1022.83
2017-03-10T05:10:23.857Z,1022.84
2017-03-10T05:11:34.139Z,1022.84
2017-03-10T05:12:44.815Z,1022.82
2017-03-10T05:13:55.094Z,1022.88
2017-03-10T05:15:05.932Z,1022.89
2017-03-10T05:16:16.588Z,1022.88
2017-03-10T05:17:26.470Z,1022.88
2017-03-10T05:18:36.755Z,1022.88
2017-03-10T05:19:47.036Z,1022.91
2017-03-10T05:20:57.845Z,1022.92
2017-03-10T05:22:08.522Z,1022.89
2017-03-10T05:23:18.427Z,1022.88
2017-03-10T05:24:28.706Z,1022.93
2017-03-10T05:25:39.364Z,1022.92
2017-03-10T05:26:49.613Z,1022.93
2017-03-10T05:28:00.264Z,1022.93
2017-03-10T05:29:10.142Z,1022.93
2017-03-10T05:30:20.798Z,1022.93
2017-03-10T05:31:31.458Z,1022.94
2017-03-10T05:32:41.262Z,1023
2017-03-10T05:33:51.931Z,1023.04
2017-03-10T05:35:02.622Z,1023.04
2017-03-10T05:36:12.896Z,1023.08
2017-03-10T05:37:23.628Z,1023.08
2017-03-10T05:38:34.428Z,1023.15
2017-03-10T05:39:44.713Z,1023.14
2017-03-10T05:40:54.615Z,1023.12
2017-03-10T05:42:05.291Z,1023.14
2017-03-10T05:43:15.581Z,1023.1
2017-03-10T05:44:25.172Z,1023.12
2017-03-10T05:45:35.428Z,1023.17
2017-03-10T05:46:45.843Z,1023.17
2017-03-10T05:47:56.239Z,1023.2
2017-03-10T05:49:06.919Z,1023.21
2017-03-10T05:50:17.344Z,1023.24
2017-03-10T05:51:28.038Z,1023.23
2017-03-10T05:52:38.711Z,1023.26
2017-03-10T05:53:48.970Z,1023.29
2017-03-10T05:54:59.264Z,1023.3
2017-03-10T05:56:09.838Z,1023.31
2017-03-10T05:57:20.117Z,1023.32
2017-03-10T05:58:30.763Z,1023.25
2017-03-10T05:59:41.412Z,1023.24
2017-03-10T06:00:51.703Z,1023.26
2017-03-10T06:02:02.525Z,1023.27
2017-03-10T06:03:12.811Z,1023.28
2017-03-10T06:04:23.093Z,1023.3
2017-03-10T06:05:33.749Z,1023.28
2017-03-10T06:06:44.432Z,1023.3
2017-03-10T06:07:55.172Z,1023.29
2017-03-10T06:09:05.434Z,1023.26
2017-03-10T06:10:15.707Z,1023.23
2017-03-10T06:11:25.956Z,1023.28
2017-03-10T06:12:36.628Z,1023.29
2017-03-10T06:13:46.684Z,1023.22
2017-03-10T06:14:57.009Z,1023.33
2017-03-10T06:16:07.323Z,1023.31
2017-03-10T06:17:17.901Z,1023.37
2017-03-10T06:18:28.170Z,1023.38
2017-03-10T06:19:39.128Z,1023.36
2017-03-10T06:20:49.384Z,1023.42
2017-03-10T06:22:00.073Z,1023.41
2017-03-10T06:23:09.964Z,1023.44
2017-03-10T06:24:20.265Z,1023.45
2017-03-10T06:25:30.695Z,1023.49
2017-03-10T06:26:40.982Z,1023.52
2017-03-10T06:27:50.894Z,1023.53
2017-03-10T06:29:01.578Z,1023.56
2017-03-10T06:30:11.857Z,1023.6
2017-03-10T06:31:22.500Z,1023.6
2017-03-10T06:32:33.153Z,1023.61
2017-03-10T06:33:43.441Z,1023.58
2017-03-10T06:34:53.730Z,1023.57
2017-03-10T06:36:03.598Z,1023.57
2017-03-10T06:37:14.170Z,1023.59
2017-03-10T06:38:24.073Z,1023.59
2017-03-10T06:39:34.734Z,1023.6
2017-03-10T06:40:45.017Z,1023.63
2017-03-10T06:41:55.710Z,1023.62
2017-03-10T06:43:06.247Z,1023.64
2017-03-10T06:44:16.150Z,1023.68
2017-03-10T06:45:26.829Z,1023.63
2017-03-10T06:46:36.697Z,1023.71
2017-03-10T06:47:46.982Z,1023.69
2017-03-10T06:48:57.933Z,1023.7
2017-03-10T06:50:07.832Z,1023.7
2017-03-10T06:51:18.110Z,1023.68
2017-03-10T06:52:28.424Z,1023.73
2017-03-10T06:53:38.730Z,1023.75
2017-03-10T06:54:49.143Z,1023.73
2017-03-10T06:55:59.443Z,1023.74
2017-03-10T06:57:09.730Z,1023.75
2017-03-10T06:58:19.649Z,1023.76
2017-03-10T06:59:30.306Z,1023.76
2017-03-10T07:00:41.067Z,1023.74
2017-03-10T07:01:51.373Z,1023.77
2017-03-10T07:03:01.305Z,1023.78
2017-03-10T07:04:11.997Z,1023.8
2017-03-10T07:05:22.278Z,1023.8
2017-03-10T07:06:33.273Z,1023.8
2017-03-10T07:07:43.161Z,1023.79
2017-03-10T07:08:53.430Z,1023.77
2017-03-10T07:10:04.084Z,1023.83
2017-03-10T07:11:13.574Z,1023.77
2017-03-10T07:12:24.234Z,1023.82
2017-03-10T07:13:34.908Z,1023.82
2017-03-10T07:14:45.180Z,1023.85
2017-03-10T07:15:55.852Z,1023.88
2017-03-10T07:17:06.123Z,1023.89
2017-03-10T07:18:16.756Z,1023.92
2017-03-10T07:19:26.282Z,1023.91
2017-03-10T07:20:36.589Z,1023.89
2017-03-10T07:21:46.890Z,1023.9
2017-03-10T07:22:57.195Z,1023.86
2017-03-10T07:24:07.386Z,1023.9
2017-03-10T07:25:17.657Z,1023.93
2017-03-10T07:26:27.966Z,1023.92
2017-03-10T07:27:37.489Z,1023.98
2017-03-10T07:28:48.175Z,1023.96
2017-03-10T07:29:58.746Z,1023.97
2017-03-10T07:31:09.054Z,1023.96
2017-03-10T07:32:19.714Z,1023.99
2017-03-10T07:33:29.591Z,1023.99
2017-03-10T07:34:40.264Z,1023.94
2017-03-10T07:35:50.797Z,1023.97
2017-03-10T07:37:01.081Z,1024.01
2017-03-10T07:38:11.368Z,1024.02
2017-03-10T07:39:21.268Z,1024.05
2017-03-10T07:40:31.546Z,1024.05
2017-03-10T07:41:41.193Z,1024.12
2017-03-10T07:42:51.496Z,1024.11
2017-03-10T07:44:01.807Z,1024.12
2017-03-10T07:45:12.488Z,1024.1
2017-03-10T07:46:23.169Z,1024.1
2017-03-10T07:47:33.984Z,1024.07
2017-03-10T07:48:44.279Z,1024.04
2017-03-10T07:49:54.950Z,1024.09
2017-03-10T07:51:04.856Z,1024.07
2017-03-10T07:52:15.136Z,1024.06
2017-03-10T07:53:25.590Z,1024.09
2017-03-10T07:54:36.277Z,1024.1
2017-03-10T07:55:46.556Z,1024.1
2017-03-10T07:56:57.267Z,1024.12
2017-03-10T07:58:07.934Z,1024.12
2017-03-10T07:59:17.974Z,1024.09
2017-03-10T08:00:28.656Z,1024.1
2017-03-10T08:01:38.940Z,1024.11
2017-03-10T08:02:49.615Z,1024.11
2017-03-10T08:04:00.290Z,1024.1
2017-03-10T08:05:10.872Z,1024.19
2017-03-10T08:06:21.158Z,1024.19
2017-03-10T08:07:31.465Z,1024.19
2017-03-10T08:08:42.116Z,1024.22
2017-03-10T08:09:52.400Z,1024.16
2017-03-10T08:11:03.058Z,1024.22
2017-03-10T08:12:13.339Z,1024.24
2017-03-10T08:13:23.606Z,1024.31
2017-03-10T08:14:34.185Z,1024.29
2017-03-10T08:15:44.083Z,1024.37
2017-03-10T08:16:55.002Z,1024.38
2017-03-10T08:18:05.679Z,1024.39
2017-03-10T08:19:15.975Z,1024.43
2017-03-10T08:20:25.872Z,1024.47
2017-03-10T08:21:36.533Z,1024.47
2017-03-10T08:22:47.070Z,1024.47
2017-03-10T08:23:57.725Z,1024.45
2017-03-10T08:25:08.443Z,1024.42
2017-03-10T08:26:18.736Z,1024.42
2017-03-10T08:27:29.044Z,1024.39
2017-03-10T08:28:39.606Z,1024.38
2017-03-10T08:29:50.343Z,1024.36
2017-03-10T08:31:01.258Z,1024.4
2017-03-10T08:32:11.552Z,1024.4
2017-03-10T08:33:21.829Z,1024.44
2017-03-10T08:34:32.368Z,1024.41
2017-03-10T08:35:42.245Z,1024.43
2017-03-10T08:36:52.532Z,1024.52
2017-03-10T08:38:02.037Z,1024.53
2017-03-10T08:39:12.702Z,1024.57
2017-03-10T08:40:23.153Z,1024.53
2017-03-10T08:41:32.272Z,1024.57
2017-03-10T08:42:42.166Z,1024.58
2017-03-10T08:43:52.824Z,1024.59
2017-03-10T08:45:03.493Z,1024.6
2017-03-10T08:46:13.553Z,1024.59
2017-03-10T08:47:23.851Z,1024.63
2017-03-10T08:48:34.143Z,1024.63
2017-03-10T08:49:44.796Z,1024.61
2017-03-10T08:50:55.082Z,1024.61
2017-03-10T08:52:05.907Z,1024.56
2017-03-10T08:53:16.214Z,1024.57
2017-03-10T08:54:26.504Z,1024.58
2017-03-10T08:55:37.175Z,1024.62
2017-03-10T08:56:47.846Z,1024.64
2017-03-10T08:57:58.277Z,1024.58
2017-03-10T08:59:08.205Z,1024.6
2017-03-10T09:00:18.507Z,1024.61
2017-03-10T09:01:28.402Z,1024.59
2017-03-10T09:02:38.698Z,1024.58
2017-03-10T09:03:49.683Z,1024.59
2017-03-10T09:05:00.353Z,1024.58
2017-03-10T09:06:11.030Z,1024.53
2017-03-10T09:07:21.703Z,1024.57
2017-03-10T09:08:31.993Z,1024.59
2017-03-10T09:09:42.630Z,1024.62
2017-03-10T09:10:52.944Z,1024.61
2017-03-10T09:12:02.854Z,1024.58
2017-03-10T09:13:13.159Z,1024.58
2017-03-10T09:14:23.054Z,1024.55
2017-03-10T09:15:33.498Z,1024.54
2017-03-10T09:16:44.154Z,1024.55
2017-03-10T09:17:54.423Z,1024.55
2017-03-10T09:19:05.142Z,1024.58
2017-03-10T09:20:15.421Z,1024.57
2017-03-10T09:21:26.404Z,1024.57
2017-03-10T09:22:37.068Z,1024.59
2017-03-10T09:23:47.364Z,1024.6
2017-03-10T09:24:57.678Z,1024.55
2017-03-10T09:26:08.346Z,1024.56
2017-03-10T09:27:18.499Z,1024.55
2017-03-10T09:28:28.444Z,1024.57
2017-03-10T09:29:38.735Z,1024.56
2017-03-10T09:30:49.409Z,1024.52
2017-03-10T09:31:59.673Z,1024.52
2017-03-10T09:33:10.190Z,1024.51
2017-03-10T09:34:20.487Z,1024.55
2017-03-10T09:35:31.173Z,1024.51
2017-03-10T09:36:41.058Z,1024.5
2017-03-10T09:37:50.933Z,1024.52
2017-03-10T09:39:01.768Z,1024.53
2017-03-10T09:40:12.469Z,1024.52
2017-03-10T09:41:22.766Z,1024.57
2017-03-10T09:42:33.433Z,1024.56
2017-03-10T09:43:43.737Z,1024.56
2017-03-10T09:44:54.176Z,1024.59
2017-03-10T09:46:04.452Z,1024.59
2017-03-10T09:47:13.568Z,1024.61
2017-03-10T09:48:24.241Z,1024.61
2017-03-10T09:49:34.917Z,1024.66
2017-03-10T09:50:45.867Z,1024.62
2017-03-10T09:51:55.802Z,1024.65
2017-03-10T09:53:06.490Z,1024.63
2017-03-10T09:54:16.797Z,1024.62
2017-03-10T09:55:27.087Z,1024.62
2017-03-10T09:56:37.516Z,1024.6
2017-03-10T09:57:48.192Z,1024.58
2017-03-10T09:58:58.864Z,1024.59
2017-03-10T10:00:09.542Z,1024.6
2017-03-10T10:01:19.440Z,1024.59
2017-03-10T10:02:30.248Z,1024.58
2017-03-10T10:03:39.736Z,1024.54
2017-03-10T10:04:48.836Z,1024.53
2017-03-10T10:05:58.717Z,1024.54
2017-03-10T10:07:08.978Z,1024.51
2017-03-10T10:08:19.921Z,1024.56
2017-03-10T10:09:29.434Z,1024.56
2017-03-10T10:10:39.339Z,1024.5
2017-03-10T10:11:49.627Z,1024.52
2017-03-10T10:12:59.915Z,1024.57
2017-03-10T10:14:10.507Z,1024.53
2017-03-10T10:15:20.790Z,1024.54
2017-03-10T10:16:30.682Z,1024.56
2017-03-10T10:17:40.967Z,1024.53
2017-03-10T10:18:51.228Z,1024.56
2017-03-10T10:20:01.643Z,1024.59
2017-03-10T10:21:11.556Z,1024.58
2017-03-10T10:22:22.253Z,1024.56
2017-03-10T10:23:32.558Z,1024.53
2017-03-10T10:24:42.488Z,1024.53
2017-03-10T10:25:53.473Z,1024.55
2017-03-10T10:27:04.149Z,1024.53
2017-03-10T10:28:14.040Z,1024.56
2017-03-10T10:29:24.702Z,1024.61
2017-03-10T10:30:35.410Z,1024.59
2017-03-10T10:31:46.032Z,1024.57
2017-03-10T10:32:55.922Z,1024.58
2017-03-10T10:34:06.231Z,1024.57
2017-03-10T10:35:16.914Z,1024.6
2017-03-10T10:36:27.197Z,1024.57
2017-03-10T10:37:38.158Z,1024.62
2017-03-10T10:38:48.854Z,1024.57
2017-03-10T10:39:59.140Z,1024.58
2017-03-10T10:41:09.430Z,1024.58
2017-03-10T10:42:19.724Z,1024.58
2017-03-10T10:43:30.302Z,1024.56
2017-03-10T10:44:40.200Z,1024.58
2017-03-10T10:45:50.495Z,1024.53
2017-03-10T10:47:01.161Z,1024.54
2017-03-10T10:48:11.448Z,1024.51
2017-03-10T10:49:22.461Z,1024.51
2017-03-10T10:50:33.146Z,1024.46
2017-03-10T10:51:43.440Z,1024.49
2017-03-10T10:52:53.730Z,1024.46
2017-03-10T10:54:03.627Z,1024.45
2017-03-10T10:55:13.636Z,1024.43
2017-03-10T10:56:23.916Z,1024.36
2017-03-10T10:57:34.593Z,1024.36
2017-03-10T10:58:44.135Z,1024.35
2017-03-10T10:59:54.807Z,1024.36
2017-03-10T11:01:05.244Z,1024.35
2017-03-10T11:02:15.149Z,1024.34
2017-03-10T11:03:25.040Z,1024.35
2017-03-10T11:04:35.375Z,1024.35
2017-03-10T11:05:46.073Z,1024.33
2017-03-10T11:06:56.600Z,1024.31
2017-03-10T11:08:06.497Z,1024.3
2017-03-10T11:09:16.775Z,1024.31
2017-03-10T11:10:27.048Z,1024.27
2017-03-10T11:11:37.387Z,1024.29
2017-03-10T11:12:47.817Z,1024.26
2017-03-10T11:13:57.783Z,1024.26
2017-03-10T11:15:08.070Z,1024.26
2017-03-10T11:16:18.773Z,1024.28
2017-03-10T11:17:29.475Z,1024.26
2017-03-10T11:18:39.930Z,1024.25
2017-03-10T11:19:50.236Z,1024.26
2017-03-10T11:21:00.440Z,1024.22
2017-03-10T11:22:10.741Z,1024.19
2017-03-10T11:23:21.426Z,1024.2
2017-03-10T11:24:31.884Z,1024.14
2017-03-10T11:25:42.557Z,1024.09
2017-03-10T11:26:52.834Z,1024.13
2017-03-10T11:28:03.117Z,1024.15
2017-03-10T11:29:13.395Z,1024.12
2017-03-10T11:30:23.846Z,1024.09
2017-03-10T11:31:33.767Z,1024.07
2017-03-10T11:32:44.064Z,1024.1
2017-03-10T11:33:54.739Z,1024.05
2017-03-10T11:35:05.017Z,1024.01
2017-03-10T11:36:14.628Z,1024.07
2017-03-10T11:37:24.907Z,1024.05
2017-03-10T11:38:35.217Z,1024.03
2017-03-10T11:39:45.981Z,1024.02
2017-03-10T11:40:56.286Z,1024.01
2017-03-10T11:42:06.816Z,1024
2017-03-10T11:43:17.510Z,1023.96
2017-03-10T11:44:28.182Z,1023.94
2017-03-10T11:45:38.071Z,1023.88
2017-03-10T11:46:48.362Z,1023.89
2017-03-10T11:47:59.262Z,1023.91
2017-03-10T11:49:09.928Z,1023.87
2017-03-10T11:50:20.605Z,1023.86
2017-03-10T11:51:30.889Z,1023.85
2017-03-10T11:52:41.182Z,1023.87
2017-03-10T11:53:51.808Z,1023.87
2017-03-10T11:55:02.516Z,1023.88
2017-03-10T11:56:12.416Z,1023.86
2017-03-10T11:57:23.063Z,1023.83
2017-03-10T11:58:33.359Z,1023.83
2017-03-10T11:59:43.805Z,1023.8
2017-03-10T12:00:54.517Z,1023.78
2017-03-10T12:02:04.815Z,1023.78
2017-03-10T12:03:15.501Z,1023.77
2017-03-10T12:04:25.033Z,1023.75
2017-03-10T12:05:35.281Z,1023.7
2017-03-10T12:06:45.569Z,1023.73
2017-03-10T12:07:55.451Z,1023.66
2017-03-10T12:09:04.961Z,1023.68
2017-03-10T12:10:14.867Z,1023.66
2017-03-10T12:11:24.876Z,1023.64
2017-03-10T12:12:34.358Z,1023.65
2017-03-10T12:13:45.031Z,1023.59
2017-03-10T12:14:55.326Z,1023.62
2017-03-10T12:16:06.009Z,1023.57
2017-03-10T12:17:16.962Z,1023.55
2017-03-10T12:18:27.792Z,1023.55
2017-03-10T12:19:38.125Z,1023.54
2017-03-10T12:20:48.794Z,1023.55
2017-03-10T12:21:59.463Z,1023.53
2017-03-10T12:23:10.304Z,1023.52
2017-03-10T12:24:21.037Z,1023.52
2017-03-10T12:25:31.327Z,1023.51
2017-03-10T12:26:41.231Z,1023.51
2017-03-10T12:27:51.905Z,1023.49
2017-03-10T12:29:01.728Z,1023.47
2017-03-10T12:30:12.017Z,1023.44
2017-03-10T12:31:21.923Z,1023.47
2017-03-10T12:32:32.235Z,1023.45
2017-03-10T12:33:42.150Z,1023.42
2017-03-10T12:34:52.929Z,1023.43
2017-03-10T12:36:03.631Z,1023.42
2017-03-10T12:37:13.918Z,1023.35
2017-03-10T12:38:23.820Z,1023.4
2017-03-10T12:39:34.127Z,1023.38
2017-03-10T12:40:44.749Z,1023.39
2017-03-10T12:41:55.051Z,1023.41
2017-03-10T12:43:05.359Z,1023.37
2017-03-10T12:44:15.650Z,1023.34
2017-03-10T12:45:26.346Z,1023.37
2017-03-10T12:46:36.780Z,1023.32
2017-03-10T12:47:47.456Z,1023.36
2017-03-10T12:48:57.329Z,1023.33
2017-03-10T12:50:08.002Z,1023.34
2017-03-10T12:51:18.293Z,1023.31
2017-03-10T12:52:29.129Z,1023.3
2017-03-10T12:53:39.452Z,1023.33
2017-03-10T12:54:49.730Z,1023.3
2017-03-10T12:56:00.407Z,1023.3
2017-03-10T12:57:11.087Z,1023.23
2017-03-10T12:58:21.915Z,1023.22
2017-03-10T12:59:32.575Z,1023.22
2017-03-10T13:00:43.273Z,1023.22
2017-03-10T13:01:53.934Z,1023.22
2017-03-10T13:03:04.594Z,1023.18
2017-03-10T13:04:15.200Z,1023.18
2017-03-10T13:05:25.868Z,1023.14
2017-03-10T13:06:36.555Z,1023.16
2017-03-10T13:07:46.863Z,1023.11
2017-03-10T13:08:57.538Z,1023.11
2017-03-10T13:10:08.339Z,1023.09
2017-03-10T13:11:18.997Z,1023.13
2017-03-10T13:12:29.284Z,1023.1
2017-03-10T13:13:39.183Z,1023.1
2017-03-10T13:14:49.066Z,1023.05
2017-03-10T13:15:59.633Z,1023.03
2017-03-10T13:17:09.921Z,1023
2017-03-10T13:18:20.201Z,1022.98
2017-03-10T13:19:30.464Z,1022.94
2017-03-10T13:20:41.124Z,1022.88
2017-03-10T13:21:51.703Z,1022.92
2017-03-10T13:23:01.597Z,1022.86
2017-03-10T13:24:11.106Z,1022.89
2017-03-10T13:25:21.391Z,1022.82
2017-03-10T13:26:31.690Z,1022.82
2017-03-10T13:27:42.098Z,1022.84
2017-03-10T13:28:52.804Z,1022.83
2017-03-10T13:30:03.508Z,1022.8
2017-03-10T13:31:13.017Z,1022.79
2017-03-10T13:32:23.188Z,1022.82
2017-03-10T13:33:33.763Z,1022.79
2017-03-10T13:34:44.045Z,1022.72
2017-03-10T13:35:54.698Z,1022.72
2017-03-10T13:37:05.400Z,1022.71
2017-03-10T13:38:15.674Z,1022.66
2017-03-10T13:39:26.484Z,1022.68
2017-03-10T13:40:36.783Z,1022.61
2017-03-10T13:41:46.676Z,1022.59
2017-03-10T13:42:56.969Z,1022.59
2017-03-10T13:44:07.249Z,1022.56
2017-03-10T13:45:17.629Z,1022.56
2017-03-10T13:46:27.914Z,1022.6
2017-03-10T13:47:38.573Z,1022.57
2017-03-10T13:48:48.858Z,1022.56
2017-03-10T13:49:59.534Z,1022.51
2017-03-10T13:51:09.970Z,1022.5
2017-03-10T13:52:19.843Z,1022.5
2017-03-10T13:53:29.780Z,1022.51
2017-03-10T13:54:40.062Z,1022.51
2017-03-10T13:55:49.999Z,1022.52
2017-03-10T13:57:00.814Z,1022.54
2017-03-10T13:58:11.101Z,1022.49
2017-03-10T13:59:21.376Z,1022.5
2017-03-10T14:00:32.025Z,1022.51
2017-03-10T14:01:41.904Z,1022.5
2017-03-10T14:02:52.333Z,1022.49
2017-03-10T14:04:03.003Z,1022.45
2017-03-10T14:05:13.271Z,1022.49
2017-03-10T14:06:23.162Z,1022.44
2017-03-10T14:07:33.441Z,1022.46
2017-03-10T14:08:43.853Z,1022.49
2017-03-10T14:09:54.135Z,1022.53
2017-03-10T14:11:04.812Z,1022.54
2017-03-10T14:12:14.686Z,1022.54
2017-03-10T14:13:24.580Z,1022.55
2017-03-10T14:14:35.496Z,1022.51